createdAt,value
2018-12-22T00:01:21.012Z,24.33
2018-12-22T00:03:49.448Z,32.07
2018-12-22T00:06:18.010Z,30.63
2018-12-22T00:08:46.621Z,26.23
2018-12-22T00:11:28.503Z,23.10
2018-12-22T00:13:56.924Z,26.70
2018-12-22T00:16:25.354Z,31.37
2018-12-22T00:18:53.989Z,26.57
2018-12-22T00:21:22.445Z,29.97
2018-12-22T00:23:50.972Z,27.27
2018-12-22T00:26:34.015Z,19.67
2018-12-22T00:29:02.590Z,19.20
2018-12-22T00:31:31.249Z,26.63
2018-12-22T00:33:59.706Z,20.23
2018-12-22T00:36:28.491Z,25.57
2018-12-22T00:38:56.935Z,28.90
2018-12-22T00:41:37.805Z,27.67
2018-12-22T00:44:06.255Z,27.90
2018-12-22T00:46:34.825Z,34.07
2018-12-22T00:49:03.291Z,26.17
2018-12-22T00:51:31.704Z,27.63
2018-12-22T00:54:00.121Z,26.00
2018-12-22T00:56:36.514Z,22.03
2018-12-22T00:59:04.944Z,27.23
2018-12-22T01:01:33.469Z,35.40
2018-12-22T01:04:01.928Z,24.90
2018-12-22T01:06:30.371Z,26.53
2018-12-22T01:08:58.777Z,28.83
2018-12-22T01:11:34.607Z,23.30
2018-12-22T01:14:03.073Z,22.30
2018-12-22T01:16:31.490Z,27.17
2018-12-22T01:18:59.962Z,22.87
2018-12-22T01:21:28.367Z,25.30
2018-12-22T01:23:56.948Z,26.80
2018-12-22T01:26:32.611Z,26.07
2018-12-22T01:29:01.098Z,28.37
2018-12-22T01:31:29.569Z,23.27
2018-12-22T01:33:58.092Z,20.90
2018-12-22T01:36:26.675Z,24.43
2018-12-22T01:38:55.166Z,24.10
2018-12-22T01:41:23.611Z,18.93
2018-12-22T01:43:52.052Z,18.73
2018-12-22T01:46:20.453Z,28.40
2018-12-22T01:48:48.875Z,27.57
2018-12-22T01:51:17.266Z,24.33
2018-12-22T01:53:45.662Z,20.93
2018-12-22T01:56:14.094Z,20.83
2018-12-22T01:58:47.774Z,14.10
2018-12-22T02:01:12.979Z,11.93
2018-12-22T02:03:41.434Z,9.60
2018-12-22T02:06:09.866Z,10.63
2018-12-22T02:08:38.279Z,9.37
2018-12-22T02:13:52.821Z,8.50
2018-12-22T02:16:21.362Z,7.53
2018-12-22T02:18:49.784Z,8.03
2018-12-22T02:21:18.275Z,11.07
2018-12-22T02:23:46.717Z,9.33
2018-12-22T02:26:15.126Z,10.67
2018-12-22T02:28:43.530Z,9.60
2018-12-22T02:31:11.955Z,9.13
2018-12-22T02:33:40.355Z,5.67
2018-12-22T02:36:08.785Z,4.37
2018-12-22T02:38:37.264Z,5.43
2018-12-22T02:41:05.677Z,4.03
2018-12-22T02:43:34.581Z,8.30
2018-12-22T02:46:03.073Z,7.43
2018-12-22T02:48:31.664Z,6.37
2018-12-22T02:51:00.097Z,6.63
2018-12-22T02:53:28.536Z,7.27
2018-12-22T02:55:57.002Z,9.17
2018-12-22T02:58:25.584Z,10.63
2018-12-22T03:00:54.261Z,11.43
2018-12-22T03:03:22.843Z,9.33
2018-12-22T03:05:51.378Z,9.43
2018-12-22T03:08:19.834Z,12.13
2018-12-22T03:10:48.407Z,10.60
2018-12-22T03:13:17.958Z,9.87
2018-12-22T03:15:46.510Z,15.73
2018-12-22T03:18:14.927Z,10.90
2018-12-22T03:20:43.355Z,11.37
2018-12-22T03:23:11.984Z,12.13
2018-12-22T03:25:40.500Z,11.93
2018-12-22T03:28:08.936Z,8.43
2018-12-22T03:30:37.414Z,11.67
2018-12-22T03:33:06.029Z,10.47
2018-12-22T03:35:34.682Z,10.03
2018-12-22T03:38:03.292Z,17.83
2018-12-22T03:40:31.861Z,11.73
2018-12-22T03:43:00.368Z,9.90
2018-12-22T03:45:29.772Z,11.37
2018-12-22T03:47:58.165Z,16.13
2018-12-22T03:50:26.623Z,12.43
2018-12-22T03:52:55.109Z,10.53
2018-12-22T03:55:23.562Z,8.33
2018-12-22T03:57:51.989Z,10.93
2018-12-22T04:00:20.395Z,13.70
2018-12-22T04:02:48.811Z,13.10
2018-12-22T04:05:17.315Z,13.00
2018-12-22T04:07:45.723Z,12.33
2018-12-22T04:10:14.202Z,11.07
2018-12-22T04:12:42.704Z,15.27
2018-12-22T04:15:11.244Z,14.57
2018-12-22T04:17:39.648Z,10.47
2018-12-22T04:20:08.295Z,11.27
2018-12-22T04:22:36.731Z,10.40
2018-12-22T04:25:05.379Z,8.87
2018-12-22T04:27:33.971Z,12.37
2018-12-22T04:30:02.572Z,14.17
2018-12-22T04:32:31.929Z,11.23
2018-12-22T04:35:00.424Z,15.30
2018-12-22T04:37:28.844Z,13.07
2018-12-22T04:39:57.404Z,10.83
2018-12-22T04:42:25.830Z,13.57
2018-12-22T04:44:54.339Z,11.90
2018-12-22T04:47:22.876Z,18.77
2018-12-22T04:49:51.296Z,16.00
2018-12-22T04:52:19.844Z,14.10
2018-12-22T04:54:48.487Z,17.57
2018-12-22T04:57:16.895Z,14.13
2018-12-22T04:59:45.298Z,11.60
2018-12-22T05:02:13.728Z,11.80
2018-12-22T05:04:42.218Z,15.10
2018-12-22T05:07:10.654Z,12.20
2018-12-22T05:09:39.270Z,12.10
2018-12-22T05:12:07.860Z,12.93
2018-12-22T05:14:36.284Z,10.33
2018-12-22T05:17:04.725Z,9.17
2018-12-22T05:19:33.227Z,8.97
2018-12-22T05:22:01.668Z,6.27
2018-12-22T05:24:30.052Z,9.47
2018-12-22T05:26:58.456Z,4.63
2018-12-22T05:29:26.868Z,6.77
2018-12-22T05:31:55.420Z,9.00
2018-12-22T05:34:24.006Z,7.37
2018-12-22T05:36:52.485Z,9.20
2018-12-22T05:39:20.977Z,9.23
2018-12-22T05:41:49.371Z,9.60
2018-12-22T05:44:17.882Z,10.07
2018-12-22T05:46:46.286Z,11.70
2018-12-22T05:49:14.788Z,9.20
2018-12-22T05:51:43.270Z,8.13
2018-12-22T05:54:11.786Z,7.03
2018-12-22T05:56:40.364Z,5.13
2018-12-22T05:59:08.790Z,4.23
2018-12-22T06:01:37.319Z,7.63
2018-12-22T06:04:05.722Z,6.63
2018-12-22T06:06:34.174Z,7.63
2018-12-22T06:09:02.578Z,8.30
2018-12-22T06:11:30.990Z,7.67
2018-12-22T06:13:59.463Z,8.80
2018-12-22T06:16:27.957Z,12.77
2018-12-22T06:18:56.479Z,7.57
2018-12-22T06:21:24.895Z,6.93
2018-12-22T06:23:53.308Z,13.10
2018-12-22T06:26:21.727Z,11.47
2018-12-22T06:28:50.133Z,17.60
2018-12-22T06:31:18.547Z,12.33
2018-12-22T06:33:47.013Z,12.87
2018-12-22T06:36:15.470Z,16.07
2018-12-22T06:38:43.947Z,13.70
2018-12-22T06:41:12.367Z,12.70
2018-12-22T06:43:40.909Z,14.30
2018-12-22T06:46:09.330Z,11.20
2018-12-22T06:48:38.183Z,15.30
2018-12-22T06:51:06.681Z,15.03
2018-12-22T06:53:35.322Z,14.90
2018-12-22T06:56:03.827Z,8.67
2018-12-22T06:58:32.261Z,11.97
2018-12-22T07:01:00.681Z,9.90
2018-12-22T07:03:29.106Z,10.50
2018-12-22T07:05:57.541Z,10.47
2018-12-22T07:08:26.037Z,11.77
2018-12-22T07:10:54.469Z,13.30
2018-12-22T07:13:23.025Z,10.17
2018-12-22T07:15:51.479Z,12.83
2018-12-22T07:18:19.957Z,12.90
2018-12-22T07:20:48.511Z,11.10
2018-12-22T07:23:17.033Z,10.77
2018-12-22T07:25:45.451Z,12.40
2018-12-22T07:28:14.182Z,13.17
2018-12-22T07:30:42.597Z,10.70
2018-12-22T07:33:11.077Z,9.67
2018-12-22T07:35:39.639Z,12.13
2018-12-22T07:38:08.041Z,12.13
2018-12-22T07:40:36.561Z,10.97
2018-12-22T07:43:05.011Z,13.40
2018-12-22T07:45:33.611Z,11.63
2018-12-22T07:48:01.998Z,10.50
2018-12-22T07:50:30.490Z,13.83
2018-12-22T07:52:58.876Z,10.37
2018-12-22T07:55:27.262Z,10.47
2018-12-22T07:57:55.686Z,14.33
2018-12-22T08:00:24.270Z,10.23
2018-12-22T08:02:52.824Z,9.93
2018-12-22T08:05:21.377Z,8.90
2018-12-22T08:07:49.802Z,7.23
2018-12-22T08:10:18.246Z,11.90
2018-12-22T08:12:46.794Z,11.93
2018-12-22T08:15:15.395Z,13.13
2018-12-22T08:17:43.966Z,10.63
2018-12-22T08:20:12.589Z,11.27
2018-12-22T08:22:41.008Z,15.57
2018-12-22T08:25:09.437Z,13.63
2018-12-22T08:27:37.868Z,8.77
2018-12-22T08:30:07.785Z,14.33
2018-12-22T08:32:36.449Z,11.50
2018-12-22T08:35:06.060Z,11.07
2018-12-22T08:37:35.574Z,13.00
2018-12-22T08:40:25.168Z,8.80
2018-12-22T08:42:53.610Z,10.07
2018-12-22T08:45:22.019Z,14.63
2018-12-22T08:47:50.531Z,19.93
2018-12-22T08:50:19.048Z,15.83
2018-12-22T08:52:47.489Z,10.57
2018-12-22T08:55:32.591Z,13.87
2018-12-22T08:58:01.007Z,14.93
2018-12-22T09:00:29.506Z,9.60
2018-12-22T09:02:58.012Z,12.73
2018-12-22T09:05:26.512Z,15.57
2018-12-22T09:07:54.913Z,17.97
2018-12-22T09:10:23.351Z,10.33
2018-12-22T09:12:51.756Z,11.40
2018-12-22T09:15:20.200Z,14.00
2018-12-22T09:17:48.619Z,11.23
2018-12-22T09:20:17.139Z,16.73
2018-12-22T09:22:45.809Z,12.83
2018-12-22T09:25:34.865Z,10.27
2018-12-22T09:28:03.298Z,13.37
2018-12-22T09:30:31.712Z,10.50
2018-12-22T09:33:00.136Z,15.57
2018-12-22T09:35:28.829Z,12.37
2018-12-22T09:38:19.327Z,12.83
2018-12-22T09:40:47.754Z,12.00
2018-12-22T09:43:16.177Z,12.30
2018-12-22T09:45:44.614Z,10.27
2018-12-22T09:48:13.051Z,10.60
2018-12-22T09:50:41.505Z,11.33
2018-12-22T09:53:23.233Z,13.33
2018-12-22T09:55:51.719Z,15.67
2018-12-22T09:58:20.142Z,13.10
2018-12-22T10:00:48.581Z,15.97
2018-12-22T10:03:17.081Z,11.67
2018-12-22T10:05:45.703Z,11.03
2018-12-22T10:08:22.763Z,8.47
2018-12-22T10:10:51.521Z,11.00
2018-12-22T10:13:20.022Z,10.77
2018-12-22T10:15:48.546Z,13.57
2018-12-22T10:18:17.090Z,12.17
2018-12-22T10:20:45.561Z,11.93
2018-12-22T10:23:26.524Z,13.70
2018-12-22T10:25:55.047Z,11.90
2018-12-22T10:28:23.483Z,14.53
2018-12-22T10:30:51.926Z,17.07
2018-12-22T10:33:20.363Z,11.30
2018-12-22T10:35:48.886Z,12.73
2018-12-22T10:38:17.521Z,14.23
2018-12-22T10:40:45.935Z,15.30
2018-12-22T10:43:14.390Z,15.90
2018-12-22T10:45:42.966Z,8.73
2018-12-22T10:48:11.454Z,14.47
2018-12-22T10:50:39.954Z,10.50
2018-12-22T10:53:20.794Z,15.40
2018-12-22T10:55:49.323Z,17.63
2018-12-22T10:58:17.865Z,13.77
2018-12-22T11:00:46.931Z,12.17
2018-12-22T11:03:15.365Z,14.17
2018-12-22T11:05:44.414Z,12.73
2018-12-22T11:08:20.552Z,14.63
2018-12-22T11:10:49.041Z,13.87
2018-12-22T11:13:17.486Z,15.67
2018-12-22T11:15:45.912Z,14.13
2018-12-22T11:18:14.348Z,11.70
2018-12-22T11:20:42.846Z,10.03
2018-12-22T11:23:20.499Z,14.47
2018-12-22T11:25:49.033Z,15.47
2018-12-22T11:28:17.478Z,20.53
2018-12-22T11:30:46.292Z,13.03
2018-12-22T11:33:14.706Z,14.47
2018-12-22T11:35:43.233Z,14.23
2018-12-22T11:38:19.866Z,11.60
2018-12-22T11:40:48.378Z,10.83
2018-12-22T11:43:16.819Z,13.03
2018-12-22T11:45:45.239Z,12.67
2018-12-22T11:51:23.728Z,16.03
2018-12-22T11:53:52.251Z,11.23
2018-12-22T11:56:20.732Z,17.63
2018-12-22T11:58:49.190Z,15.43
2018-12-22T12:01:17.690Z,11.67
2018-12-22T12:03:59.164Z,17.77
2018-12-22T12:06:27.574Z,15.40
2018-12-22T12:08:56.141Z,12.50
2018-12-22T12:11:24.640Z,16.70
2018-12-22T12:13:58.523Z,14.67
2018-12-22T12:16:34.864Z,14.57
2018-12-22T12:19:11.457Z,13.30
2018-12-22T12:21:39.971Z,16.60
2018-12-22T12:24:08.624Z,10.63
2018-12-22T12:26:37.296Z,16.30
2018-12-22T12:29:05.803Z,12.87
2018-12-22T12:31:34.217Z,20.13
2018-12-22T12:34:06.581Z,16.10
2018-12-22T12:36:35.007Z,12.60
2018-12-22T12:39:05.268Z,14.07
2018-12-22T12:41:33.701Z,14.23
2018-12-22T12:44:02.353Z,13.53
2018-12-22T12:46:44.271Z,12.10
2018-12-22T12:49:13.376Z,13.40
2018-12-22T12:51:41.928Z,10.47
2018-12-22T12:54:10.387Z,8.93
2018-12-22T12:56:42.277Z,14.43
2018-12-22T12:59:10.781Z,12.13
2018-12-22T13:01:39.459Z,13.10
2018-12-22T13:04:11.056Z,15.83
2018-12-22T13:06:39.815Z,16.20
2018-12-22T13:09:09.146Z,13.37
2018-12-22T13:11:38.256Z,14.53
2018-12-22T13:14:13.058Z,10.93
2018-12-22T13:16:41.520Z,8.03
2018-12-22T13:19:17.556Z,11.77
2018-12-22T13:21:49.018Z,10.30
2018-12-22T16:48:46.728Z,24.00
2018-12-22T22:22:26.335Z,11.27
2018-12-22T22:24:54.969Z,13.63
2018-12-22T22:32:27.006Z,6.53
2018-12-22T22:34:55.451Z,6.83
2018-12-22T22:43:36.797Z,12.40
2018-12-22T22:46:15.400Z,14.07
2018-12-22T22:48:43.861Z,15.53
2018-12-22T22:51:12.305Z,14.13
2018-12-22T22:53:40.761Z,17.67
2018-12-22T22:56:09.846Z,14.90
2018-12-22T22:58:38.385Z,16.63
2018-12-22T23:01:07.098Z,14.90
2018-12-22T23:03:35.537Z,16.20
2018-12-22T23:06:04.042Z,15.77
2018-12-22T23:08:32.557Z,9.73
2018-12-22T23:11:01.008Z,13.33
2018-12-22T23:13:29.409Z,11.00
2018-12-22T23:15:57.871Z,17.77
2018-12-22T23:18:26.296Z,12.57
2018-12-22T23:21:02.545Z,11.43
2018-12-22T23:23:30.963Z,13.67
2018-12-22T23:25:59.375Z,13.10
2018-12-22T23:28:28.408Z,16.13
2018-12-22T23:30:56.849Z,13.30
2018-12-22T23:33:25.331Z,13.93
2018-12-22T23:35:53.742Z,14.87
2018-12-22T23:38:22.177Z,15.60
2018-12-22T23:40:50.605Z,10.03
2018-12-22T23:43:19.023Z,8.83
2018-12-22T23:45:47.439Z,12.27
2018-12-22T23:48:16.076Z,9.10
2018-12-22T23:50:44.679Z,10.90
2018-12-22T23:53:13.105Z,12.13
2018-12-22T23:55:41.617Z,12.97
2018-12-22T23:58:10.116Z,13.93
